createdAt,value
2023-02-02T00:02:30.117Z,3.46
2023-02-02T00:07:33.537Z,3.20
2023-02-02T00:12:36.788Z,3.26
2023-02-02T00:17:41.329Z,3.26
2023-02-02T00:22:44.580Z,3.07
2023-02-02T00:27:47.672Z,3.22
2023-02-02T00:32:53.224Z,3.39
2023-02-02T00:37:56.433Z,3.42
2023-02-02T00:42:59.630Z,3.43
2023-02-02T00:48:05.123Z,3.58
2023-02-02T00:53:08.435Z,3.55
2023-02-02T00:58:11.776Z,3.60
2023-02-02T01:03:16.333Z,3.61
2023-02-02T01:08:19.667Z,3.55
2023-02-02T01:13:23.035Z,3.49
2023-02-02T01:18:28.332Z,3.43
2023-02-02T01:23:32.842Z,3.62
2023-02-02T01:28:36.586Z,3.62
2023-02-02T01:33:41.807Z,3.62
2023-02-02T01:38:45.562Z,3.71
2023-02-02T01:43:55.184Z,3.60
2023-02-02T01:49:04.475Z,3.72
2023-02-02T01:54:10.567Z,3.43
2023-02-02T01:59:16.981Z,3.76
2023-02-02T02:04:23.046Z,3.70
2023-02-02T02:09:26.345Z,3.64
2023-02-02T02:14:47.256Z,3.68
2023-02-02T02:20:44.357Z,3.45
2023-02-02T02:26:23.762Z,3.56
2023-02-02T02:32:04.535Z,3.59
2023-02-02T02:37:12.989Z,3.57
2023-02-02T02:42:23.921Z,3.68
2023-02-02T02:47:31.518Z,3.64
2023-02-02T02:52:37.023Z,3.70
2023-02-02T02:58:00.208Z,3.66
2023-02-02T03:03:15.336Z,3.61
2023-02-02T03:08:25.542Z,3.70
2023-02-02T03:13:29.082Z,3.45
2023-02-02T03:18:34.509Z,3.50
2023-02-02T03:23:38.683Z,3.71
2023-02-02T03:28:42.216Z,3.54
2023-02-02T03:33:46.994Z,3.62
2023-02-02T03:38:50.464Z,3.55
2023-02-02T03:43:53.611Z,3.43
2023-02-02T03:48:58.279Z,3.47
2023-02-02T03:54:01.665Z,3.61
2023-02-02T03:59:05.199Z,3.60
2023-02-02T04:04:09.766Z,3.55
2023-02-02T04:09:12.935Z,3.86
2023-02-02T04:14:16.188Z,3.54
2023-02-02T04:19:21.173Z,3.76
2023-02-02T04:24:24.423Z,3.62
2023-02-02T04:29:27.732Z,3.72
2023-02-02T04:34:32.399Z,3.62
2023-02-02T04:39:35.760Z,3.56
2023-02-02T04:44:39.841Z,3.62
2023-02-02T04:49:44.583Z,3.78
2023-02-02T04:54:48.025Z,3.69
2023-02-02T04:59:51.318Z,3.67
2023-02-02T05:04:56.071Z,3.67
2023-02-02T05:09:59.403Z,3.47
2023-02-02T05:15:03.639Z,3.45
2023-02-02T05:20:10.089Z,3.40
2023-02-02T05:25:13.345Z,3.56
2023-02-02T05:30:17.536Z,3.64
2023-02-02T05:35:22.165Z,3.61
2023-02-02T05:40:26.171Z,3.55
2023-02-02T05:45:30.155Z,3.42
2023-02-02T05:50:34.939Z,3.51
2023-02-02T05:55:40.445Z,3.60
2023-02-02T06:00:43.594Z,3.66
2023-02-02T06:05:48.526Z,3.67
2023-02-02T06:10:51.851Z,3.62
2023-02-02T06:15:55.171Z,3.63
2023-02-02T06:21:00.445Z,3.67
2023-02-02T06:26:04.722Z,3.56
2023-02-02T06:31:09.369Z,3.48
2023-02-02T06:36:14.084Z,3.57
2023-02-02T06:41:17.566Z,3.66
2023-02-02T06:46:21.018Z,3.45
2023-02-02T06:51:25.692Z,3.48
2023-02-02T06:56:28.847Z,3.64
2023-02-02T07:01:32.586Z,3.65
2023-02-02T07:06:37.235Z,3.72
2023-02-02T07:11:41.190Z,3.51
2023-02-02T07:16:47.039Z,3.69
2023-02-02T07:21:51.673Z,3.80
2023-02-02T07:26:55.165Z,3.66
2023-02-02T07:31:58.678Z,3.77
2023-02-02T07:37:03.252Z,3.62
2023-02-02T07:42:08.621Z,3.67
2023-02-02T07:47:13.759Z,3.74
2023-02-02T07:52:18.367Z,3.77
2023-02-02T07:57:21.560Z,3.70
2023-02-02T08:02:24.990Z,3.80
2023-02-02T08:07:32.320Z,3.71
2023-02-02T08:12:35.435Z,3.70
2023-02-02T08:17:38.664Z,3.76
2023-02-02T08:22:43.386Z,3.51
2023-02-02T08:27:46.664Z,3.18
2023-02-02T08:32:49.916Z,3.27
2023-02-02T08:37:54.561Z,3.29
2023-02-02T08:42:58.129Z,3.07
2023-02-02T08:48:11.405Z,3.12
2023-02-02T08:53:16.716Z,2.75
2023-02-02T08:58:19.837Z,3.01
2023-02-02T09:03:23.171Z,2.99
2023-02-02T09:08:27.788Z,2.68
2023-02-02T09:13:31.000Z,2.43
2023-02-02T09:18:34.362Z,2.55
2023-02-02T09:23:40.854Z,2.14
2023-02-02T09:28:46.139Z,2.27
2023-02-02T09:33:49.355Z,2.59
2023-02-02T09:38:54.031Z,2.16
2023-02-02T09:44:04.829Z,2.41
2023-02-02T09:49:12.430Z,2.44
2023-02-02T09:54:20.732Z,2.72
2023-02-02T09:59:28.729Z,2.84
2023-02-02T10:04:36.366Z,2.99
2023-02-02T10:09:47.489Z,2.64
2023-02-02T10:14:55.378Z,2.97
2023-02-02T10:20:07.149Z,3.05
2023-02-02T10:25:15.561Z,3.04
2023-02-02T10:30:21.396Z,2.99
2023-02-02T10:35:37.315Z,2.92
2023-02-02T10:40:53.295Z,2.99
2023-02-02T10:45:58.177Z,2.95
2023-02-02T10:51:08.242Z,3.01
2023-02-02T10:56:14.204Z,2.99
2023-02-02T11:01:18.456Z,3.02
2023-02-02T11:06:38.855Z,3.13
2023-02-02T11:11:46.939Z,3.09
2023-02-02T11:17:03.200Z,3.30
2023-02-02T11:22:06.557Z,3.45
2023-02-02T11:27:16.668Z,3.53
2023-02-02T11:32:30.752Z,3.89
2023-02-02T11:37:35.021Z,3.55
2023-02-02T11:42:46.305Z,3.53
2023-02-02T11:47:52.248Z,3.30
2023-02-02T11:52:56.417Z,3.49
2023-02-02T11:58:20.195Z,3.83
2023-02-02T12:03:33.228Z,3.59
2023-02-02T12:08:37.518Z,3.72
2023-02-02T12:14:03.343Z,3.80
2023-02-02T12:19:24.908Z,3.91
2023-02-02T12:24:32.567Z,3.79
2023-02-02T12:29:53.986Z,3.35
2023-02-02T12:35:15.906Z,3.72
2023-02-02T12:40:33.281Z,3.65
2023-02-02T12:45:52.902Z,3.88
2023-02-02T12:51:08.223Z,3.87
2023-02-02T12:56:22.907Z,3.35
2023-02-02T13:01:49.844Z,3.89
2023-02-02T13:07:30.868Z,4.22
2023-02-02T13:12:37.998Z,3.91
2023-02-02T13:17:49.537Z,3.81
2023-02-02T13:22:57.772Z,3.91
2023-02-02T13:28:02.540Z,4.01
2023-02-02T13:33:16.884Z,3.96
2023-02-02T13:38:24.131Z,3.99
2023-02-02T13:43:35.340Z,4.17
2023-02-02T13:48:52.616Z,3.79
2023-02-02T13:54:19.717Z,4.33
2023-02-02T13:59:44.685Z,4.34
2023-02-02T14:04:56.301Z,4.56
2023-02-02T14:10:00.128Z,4.42
2023-02-02T14:15:04.229Z,4.77
2023-02-02T14:20:46.691Z,4.99
2023-02-02T14:26:09.902Z,5.01
2023-02-02T14:31:52.018Z,4.72
2023-02-02T14:37:09.727Z,4.61
2023-02-02T14:42:47.246Z,4.52
2023-02-02T14:47:53.782Z,4.54
2023-02-02T14:53:02.976Z,4.44
2023-02-02T14:58:08.200Z,4.33
2023-02-02T15:03:38.317Z,3.94
2023-02-02T15:08:43.021Z,4.20
2023-02-02T15:13:51.939Z,3.83
2023-02-02T15:19:05.465Z,4.05
2023-02-02T15:24:20.597Z,3.89
2023-02-02T15:29:36.802Z,3.81
2023-02-02T15:34:44.721Z,3.93
2023-02-02T15:39:53.318Z,3.62
2023-02-02T15:44:56.828Z,3.36
2023-02-02T15:50:00.971Z,3.32
2023-02-02T15:55:22.532Z,3.23
2023-02-02T16:00:29.733Z,3.37
2023-02-02T16:05:48.157Z,2.95
2023-02-02T16:11:04.413Z,3.20
2023-02-02T16:16:22.148Z,3.30
2023-02-02T16:21:27.623Z,3.09
2023-02-02T16:26:34.531Z,3.16
2023-02-02T16:31:38.206Z,3.06
2023-02-02T16:36:41.753Z,2.92
2023-02-02T16:41:49.282Z,3.08
2023-02-02T16:46:53.155Z,3.13
2023-02-02T16:52:12.947Z,2.68
2023-02-02T16:57:21.069Z,2.95
2023-02-02T17:02:30.493Z,3.02
2023-02-02T17:07:36.727Z,2.91
2023-02-02T17:12:41.417Z,2.71
2023-02-02T17:17:44.652Z,2.91
2023-02-02T17:22:50.214Z,2.88
2023-02-02T17:27:57.303Z,2.67
2023-02-02T17:33:00.463Z,2.65
2023-02-02T17:38:03.688Z,2.44
2023-02-02T17:43:12.083Z,2.48
2023-02-02T17:48:15.688Z,2.67
2023-02-02T17:53:21.483Z,2.70
2023-02-02T17:58:26.299Z,2.61
2023-02-02T18:03:34.280Z,2.71
2023-02-02T18:08:37.920Z,2.55
2023-02-02T18:13:44.364Z,2.66
2023-02-02T18:18:47.608Z,2.65
2023-02-02T18:23:50.971Z,2.54
2023-02-02T18:28:56.284Z,2.43
2023-02-02T18:33:59.680Z,2.51
2023-02-02T18:39:03.390Z,2.48
2023-02-02T18:44:08.083Z,2.70
2023-02-02T18:49:13.281Z,2.73
2023-02-02T18:54:16.519Z,2.84
2023-02-02T18:59:21.763Z,2.72
2023-02-02T19:04:25.295Z,2.53
2023-02-02T19:09:30.041Z,2.58
2023-02-02T19:14:37.573Z,2.66
2023-02-02T19:19:42.998Z,2.48
2023-02-02T19:24:46.457Z,2.63
2023-02-02T19:29:54.260Z,2.64
2023-02-02T19:35:01.624Z,2.42
2023-02-02T19:40:17.496Z,2.36
2023-02-02T19:45:27.024Z,2.40
2023-02-02T19:50:38.738Z,2.45
2023-02-02T19:55:43.109Z,2.63
2023-02-02T20:00:48.943Z,2.36
2023-02-02T20:05:54.046Z,2.60
2023-02-02T20:11:00.736Z,2.26
2023-02-02T20:16:06.210Z,2.19
2023-02-02T20:21:21.222Z,2.55
2023-02-02T20:26:27.084Z,2.67
2023-02-02T20:31:38.518Z,2.37
2023-02-02T20:36:42.242Z,2.44
2023-02-02T20:41:45.632Z,2.44
2023-02-02T20:46:50.985Z,2.56
2023-02-02T20:51:55.803Z,2.60
2023-02-02T20:56:59.597Z,2.62
2023-02-02T21:02:05.550Z,2.63
2023-02-02T21:07:08.828Z,2.53
2023-02-02T21:12:12.274Z,2.46
2023-02-02T21:17:17.363Z,2.54
2023-02-02T21:22:21.015Z,2.70
2023-02-02T21:27:25.218Z,2.76
2023-02-02T21:32:30.184Z,2.75
2023-02-02T21:37:38.176Z,2.74
2023-02-02T21:42:46.586Z,2.70
2023-02-02T21:47:55.519Z,2.72
2023-02-02T21:53:15.569Z,2.68
2023-02-02T21:58:25.608Z,2.69
2023-02-02T22:03:36.233Z,2.57
2023-02-02T22:08:39.642Z,2.68
2023-02-02T22:13:42.880Z,2.54
2023-02-02T22:18:47.915Z,2.52
2023-02-02T22:23:51.668Z,2.60
2023-02-02T22:28:55.289Z,2.49
2023-02-02T22:33:59.774Z,2.52
2023-02-02T22:39:02.906Z,2.80
2023-02-02T22:44:06.530Z,2.74
2023-02-02T22:49:12.805Z,2.63
2023-02-02T22:54:16.042Z,2.74
2023-02-02T22:59:19.176Z,2.75
2023-02-02T23:04:23.805Z,2.79
2023-02-02T23:09:27.032Z,3.08
2023-02-02T23:14:30.034Z,3.39
2023-02-02T23:19:34.662Z,3.48
2023-02-02T23:24:37.744Z,3.44
2023-02-02T23:29:40.933Z,3.66
2023-02-02T23:34:45.590Z,3.58
2023-02-02T23:39:48.770Z,3.62
2023-02-02T23:44:51.894Z,3.66
2023-02-02T23:49:56.995Z,3.66
2023-02-02T23:55:01.116Z,3.76
